Time;durP1;ratioP1;P1;durP2;ratioP2;P2;SDS_P1;SDS_P2;PMS_P1;PMS_P2;Temp;Humidity;BMP_temperature;BMP_pressure;BME280_temperature;BME280_humidity;BME280_pressure;Samples;Min_cycle;Max_cycle;Signal;HPM_P1;HPM_P2
2022/05/26 00:01:26;;;;;;;8.18;2.50;;;;;;;14.42;100.00;99056.84;5036437;28;20135;-88
2022/05/26 00:03:53;;;;;;;3.80;1.85;;;;;;;14.50;100.00;99057.59;5036163;28;20426;-87
2022/05/26 00:06:23;;;;;;;6.38;2.22;;;;;;;14.37;100.00;99054.06;5041620;28;20026;-89
2022/05/26 00:08:49;;;;;;;5.60;2.30;;;;;;;14.34;100.00;99061.63;5045343;28;20521;-88
2022/05/26 00:11:19;;;;;;;6.32;2.20;;;;;;;14.51;100.00;99062.66;5040562;28;20028;-87
2022/05/26 00:13:45;;;;;;;6.15;2.75;;;;;;;14.58;100.00;99070.50;5044559;28;20111;-87
2022/05/26 00:16:12;;;;;;;7.75;2.47;;;;;;;14.60;100.00;99073.75;5039176;28;20121;-88
2022/05/26 00:18:37;;;;;;;5.95;2.05;;;;;;;14.47;100.00;99058.84;5078601;28;20040;-87
2022/05/26 00:21:04;;;;;;;10.40;2.80;;;;;;;14.18;100.00;99058.50;5041395;28;20021;-87
2022/05/26 00:23:29;;;;;;;4.32;1.85;;;;;;;14.41;100.00;99072.91;5048131;28;20064;-87
2022/05/26 00:25:55;;;;;;;9.57;2.50;;;;;;;14.27;100.00;99061.69;5044183;28;20763;-89
2022/05/26 00:28:20;;;;;;;7.65;2.33;;;;;;;14.35;100.00;99071.97;5046868;28;20034;-87
2022/05/26 00:30:46;;;;;;;4.30;1.90;;;;;;;14.31;100.00;99068.13;5044576;28;20448;-88
2022/05/26 00:33:13;;;;;;;6.22;2.58;;;;;;;14.31;100.00;99072.63;5043253;28;20037;-87
2022/05/26 00:35:40;;;;;;;6.45;2.22;;;;;;;14.38;100.00;99071.53;5042116;28;20029;-88
2022/05/26 00:38:11;;;;;;;8.68;2.25;;;;;;;14.41;100.00;99071.09;5043997;28;20406;-89
2022/05/26 00:40:38;;;;;;;10.68;2.05;;;;;;;14.25;100.00;99076.94;5041370;28;20021;-89
2022/05/26 00:43:05;;;;;;;5.15;1.77;;;;;;;14.32;100.00;99076.88;5044530;28;20040;-87
2022/05/26 00:45:39;;;;;;;12.05;2.63;;;;;;;14.16;100.00;99072.97;5044042;28;20107;-87
2022/05/26 00:48:10;;;;;;;9.88;2.35;;;;;;;14.21;100.00;99066.00;5045733;28;20041;-88
2022/05/26 00:50:51;;;;;;;7.53;2.00;;;;;;;13.95;100.00;99077.59;5044368;28;20034;-89
2022/05/26 00:53:33;;;;;;;8.73;1.92;;;;;;;13.98;100.00;99072.69;5046535;28;20112;-88
2022/05/26 00:56:11;;;;;;;7.25;2.28;;;;;;;13.81;100.00;99066.34;5037989;28;20051;-87
2022/05/26 00:58:44;;;;;;;5.25;1.60;;;;;;;14.08;100.00;99064.28;5043615;28;20130;-88
2022/05/26 01:01:11;;;;;;;5.78;2.20;;;;;;;13.87;100.00;99069.94;5044926;28;20059;-87
2022/05/26 01:03:42;;;;;;;10.90;2.47;;;;;;;13.70;100.00;99073.94;5046017;28;20029;-86
2022/05/26 01:06:10;;;;;;;6.15;2.00;;;;;;;13.92;100.00;99078.03;5039079;28;20029;-87
2022/05/26 01:08:50;;;;;;;5.15;1.60;;;;;;;13.72;100.00;99076.34;5044660;28;20414;-87
2022/05/26 01:11:16;;;;;;;8.23;2.20;;;;;;;13.59;100.00;99068.53;5042882;28;20031;-87
2022/05/26 01:13:47;;;;;;;6.32;2.30;;;;;;;13.69;100.00;99074.13;5038989;28;20028;-88
2022/05/26 01:16:34;;;;;;;11.27;2.58;;;;;;;13.81;100.00;99072.44;5043202;28;20039;-88
2022/05/26 01:19:06;;;;;;;10.23;2.00;;;;;;;13.52;100.00;99069.38;5044605;28;20068;-86
2022/05/26 01:21:50;;;;;;;5.25;1.98;;;;;;;13.33;100.00;99075.53;5039644;28;20036;-87
2022/05/26 01:24:34;;;;;;;8.77;2.30;;;;;;;13.34;100.00;99069.25;5042172;28;20553;-86
2022/05/26 01:27:16;;;;;;;10.38;2.85;;;;;;;13.34;100.00;99079.78;5040115;28;20040;-87
2022/05/26 01:29:54;;;;;;;7.55;2.30;;;;;;;13.28;100.00;99073.56;5039652;28;20384;-87
2022/05/26 01:32:43;;;;;;;7.10;2.15;;;;;;;13.05;100.00;99077.50;5042525;28;20029;-88
2022/05/26 01:35:24;;;;;;;8.98;1.98;;;;;;;12.85;100.00;99073.13;5044367;28;20056;-87
2022/05/26 01:37:58;;;;;;;6.38;1.75;;;;;;;12.97;100.00;99081.22;5046267;28;20379;-88
2022/05/26 01:40:30;;;;;;;7.95;2.50;;;;;;;13.00;100.00;99064.97;5041970;28;20047;-89
2022/05/26 01:43:14;;;;;;;5.55;2.42;;;;;;;12.90;100.00;99082.25;5043636;28;20491;-89
2022/05/26 01:46:01;;;;;;;5.70;1.80;;;;;;;12.64;100.00;99073.41;5042148;28;20025;-87
2022/05/26 01:48:43;;;;;;;6.80;1.90;;;;;;;12.83;100.00;99069.09;5035286;28;20494;-87
2022/05/26 01:51:17;;;;;;;8.65;1.95;;;;;;;12.60;100.00;99062.50;5039629;28;20518;-86
2022/05/26 01:53:52;;;;;;;4.22;1.65;;;;;;;12.58;100.00;99061.91;5043344;28;20124;-87
2022/05/26 01:56:39;;;;;;;6.25;1.95;;;;;;;12.71;100.00;99069.72;5043059;28;20029;-89
2022/05/26 01:59:22;;;;;;;9.48;2.35;;;;;;;12.60;100.00;99077.47;5033746;28;20095;-86
2022/05/26 02:02:04;;;;;;;8.10;1.80;;;;;;;12.64;100.00;99084.75;5038774;28;20375;-87
2022/05/26 02:04:42;;;;;;;2.75;1.60;;;;;;;12.63;100.00;99098.13;5039020;28;20032;-87
2022/05/26 02:07:17;;;;;;;5.50;1.67;;;;;;;12.52;100.00;99097.75;5038184;28;20026;-86
2022/05/26 02:09:44;;;;;;;9.73;2.58;;;;;;;12.49;100.00;99094.72;5036837;28;20360;-86
2022/05/26 02:12:22;;;;;;;5.75;1.95;;;;;;;12.43;100.00;99105.06;5037804;28;20021;-88
2022/05/26 02:14:56;;;;;;;7.15;1.95;;;;;;;12.30;100.00;99117.44;5045845;28;20036;-87
2022/05/26 02:17:30;;;;;;;6.60;2.00;;;;;;;12.31;100.00;99122.47;5039752;28;20032;-87
2022/05/26 02:20:33;;;;;;;8.63;2.20;;;;;;;12.27;100.00;99123.91;5040741;28;20053;-87
2022/05/26 02:23:08;;;;;;;9.25;1.90;;;;;;;12.41;100.00;99128.16;5029744;28;20049;-87
2022/05/26 02:25:35;;;;;;;8.40;2.00;;;;;;;12.17;100.00;99128.75;5040969;28;20036;-87
2022/05/26 02:28:01;;;;;;;6.03;2.10;;;;;;;12.31;100.00;99119.84;5025200;28;20029;-88
2022/05/26 02:30:30;;;;;;;6.40;2.25;;;;;;;12.10;100.00;99126.13;5040453;28;20047;-88
2022/05/26 02:32:56;;;;;;;8.73;1.88;;;;;;;12.30;100.00;99123.47;5039532;28;20505;-87
2022/05/26 02:35:26;;;;;;;8.18;2.53;;;;;;;12.31;100.00;99126.94;5039258;28;20029;-86
2022/05/26 02:38:03;;;;;;;4.85;1.85;;;;;;;12.32;100.00;99110.94;5039974;28;20036;-88
2022/05/26 02:40:29;;;;;;;6.38;1.90;;;;;;;12.14;100.00;99103.66;5025870;28;20080;-87
2022/05/26 02:43:02;;;;;;;8.88;2.20;;;;;;;12.29;100.00;99106.06;5037937;28;20078;-86
2022/05/26 02:45:47;;;;;;;10.02;2.55;;;;;;;12.14;100.00;99107.09;5043051;28;20045;-86
2022/05/26 02:48:18;;;;;;;8.82;1.98;;;;;;;12.18;100.00;99106.69;5041275;28;20053;-88
2022/05/26 02:51:10;;;;;;;6.28;2.03;;;;;;;12.09;100.00;99106.91;5040209;28;20045;-86
2022/05/26 02:53:43;;;;;;;7.43;2.42;;;;;;;12.06;100.00;99109.94;5039109;28;20028;-87
2022/05/26 02:56:34;;;;;;;6.68;1.73;;;;;;;12.07;100.00;99121.25;5040043;28;20056;-87
2022/05/26 02:59:22;;;;;;;5.13;1.70;;;;;;;12.03;100.00;99114.78;5040513;28;20403;-86
2022/05/26 03:01:58;;;;;;;3.35;1.90;;;;;;;11.97;100.00;99105.84;5042740;28;20482;-85
2022/05/26 03:04:33;;;;;;;6.28;1.90;;;;;;;11.98;100.00;99115.34;5039675;28;20399;-87
2022/05/26 03:07:02;;;;;;;7.15;2.75;;;;;;;11.77;100.00;99127.66;5035874;28;20057;-86
2022/05/26 03:09:33;;;;;;;7.50;2.17;;;;;;;11.93;100.00;99120.41;5032828;28;20402;-86
2022/05/26 03:11:59;;;;;;;3.92;1.83;;;;;;;11.98;100.00;99102.19;5037442;28;20029;-87
2022/05/26 03:14:26;;;;;;;5.80;2.00;;;;;;;11.89;100.00;99111.31;5039226;28;20028;-86
2022/05/26 03:16:52;;;;;;;4.88;2.17;;;;;;;11.85;100.00;99109.09;5039786;28;20178;-87
2022/05/26 03:19:18;;;;;;;6.05;1.85;;;;;;;11.88;100.00;99096.53;5042346;28;20025;-87
2022/05/26 03:21:45;;;;;;;8.10;2.63;;;;;;;11.93;100.00;99105.44;5043519;28;20479;-88
2022/05/26 03:24:11;;;;;;;9.95;2.47;;;;;;;11.73;100.00;99113.31;5043499;28;20037;-88
2022/05/26 03:26:38;;;;;;;7.40;1.95;;;;;;;11.89;100.00;99120.03;5035634;28;20391;-87
2022/05/26 03:29:05;;;;;;;6.57;2.05;;;;;;;11.84;100.00;99123.25;5045456;28;20048;-87
2022/05/26 03:31:32;;;;;;;8.30;2.13;;;;;;;11.78;100.00;99117.97;5039447;28;20053;-86
2022/05/26 03:42:12;;;;;;;7.82;2.10;;;;;;;11.74;100.00;99119.38;5041410;28;20037;-88
2022/05/26 03:44:38;;;;;;;4.47;1.67;;;;;;;11.78;100.00;99118.75;5035826;28;20478;-88
2022/05/26 03:47:04;;;;;;;7.95;1.88;;;;;;;11.71;100.00;99121.41;5035596;28;20060;-88
2022/05/26 03:49:30;;;;;;;5.20;1.60;;;;;;;11.66;100.00;99120.38;5038856;28;20021;-87
2022/05/26 03:51:57;;;;;;;4.60;1.50;;;;;;;11.60;100.00;99121.19;5039411;28;20059;-88
2022/05/26 03:54:24;;;;;;;8.98;1.80;;;;;;;11.60;100.00;99121.19;5036714;28;20379;-89
2022/05/26 03:56:49;;;;;;;6.43;1.80;;;;;;;11.57;100.00;99123.19;5036976;28;20037;-88
2022/05/26 03:59:15;;;;;;;6.28;1.80;;;;;;;11.51;100.00;99128.44;5041565;28;20031;-89
2022/05/26 04:01:41;;;;;;;3.75;1.90;;;;;;;11.52;100.00;99125.59;5041844;28;20071;-88
2022/05/26 04:04:07;;;;;;;7.13;2.55;;;;;;;11.64;100.00;99122.41;5018208;28;20029;-88
2022/05/26 04:06:33;;;;;;;9.05;2.22;;;;;;;11.44;100.00;99123.16;5031262;28;20116;-88
2022/05/26 04:08:59;;;;;;;7.40;2.13;;;;;;;11.69;100.00;99133.94;5017501;28;20037;-87
2022/05/26 04:11:25;;;;;;;7.70;2.00;;;;;;;11.78;100.00;99123.22;5040353;28;20431;-89
2022/05/26 04:13:52;;;;;;;9.25;2.00;;;;;;;11.83;100.00;99126.88;5034779;28;20090;-88
2022/05/26 04:16:19;;;;;;;3.80;1.75;;;;;;;11.94;100.00;99122.03;5024355;28;20499;-88
2022/05/26 04:18:45;;;;;;;3.53;1.70;;;;;;;12.03;100.00;99128.75;5036733;28;20025;-89
2022/05/26 04:21:12;;;;;;;5.63;1.80;;;;;;;12.05;100.00;99128.53;5036826;28;20524;-88
2022/05/26 04:23:38;;;;;;;4.82;1.55;;;;;;;12.19;100.00;99129.38;5034202;28;20030;-89
2022/05/26 04:26:06;;;;;;;8.60;2.25;;;;;;;12.17;100.00;99120.84;5036644;28;20034;-87
2022/05/26 04:28:32;;;;;;;6.15;2.13;;;;;;;12.09;100.00;99141.09;5044656;28;20083;-87
2022/05/26 04:30:57;;;;;;;4.30;1.60;;;;;;;12.33;100.00;99138.06;5043171;28;20041;-87
2022/05/26 04:33:24;;;;;;;6.90;1.88;;;;;;;12.31;100.00;99132.19;5035334;28;20112;-88
2022/05/26 04:35:50;;;;;;;4.57;1.50;;;;;;;12.37;100.00;99134.81;5039806;28;20045;-86
2022/05/26 04:38:17;;;;;;;4.30;1.70;;;;;;;12.39;100.00;99129.34;5039485;28;20037;-88
2022/05/26 04:40:45;;;;;;;4.97;1.67;;;;;;;12.45;100.00;99123.25;5035996;28;20024;-88
2022/05/26 04:43:10;;;;;;;6.47;1.63;;;;;;;12.69;100.00;99124.44;5040113;28;20025;-87
2022/05/26 04:45:36;;;;;;;3.90;1.52;;;;;;;12.60;100.00;99128.31;5033434;28;20040;-87
2022/05/26 04:48:02;;;;;;;7.07;1.65;;;;;;;12.62;100.00;99128.09;5040170;28;20037;-86
2022/05/26 04:50:28;;;;;;;4.63;1.30;;;;;;;12.82;100.00;99138.59;5038026;28;20029;-86
2022/05/26 04:52:54;;;;;;;4.15;1.35;;;;;;;12.76;100.00;99134.97;5037838;28;20032;-87
2022/05/26 04:55:19;;;;;;;3.45;1.38;;;;;;;13.07;100.00;99141.38;5039545;28;20044;-88
2022/05/26 04:57:45;;;;;;;4.75;1.40;;;;;;;13.18;100.00;99142.53;5045029;28;20418;-89
2022/05/26 05:00:14;;;;;;;6.07;1.58;;;;;;;13.29;100.00;99139.25;5040933;28;20025;-89
2022/05/26 05:02:39;;;;;;;5.10;1.45;;;;;;;13.20;100.00;99148.41;5038875;28;20021;-88
2022/05/26 05:05:06;;;;;;;6.57;1.50;;;;;;;13.31;100.00;99139.03;5040417;28;20044;-87
2022/05/26 05:07:31;;;;;;;7.72;2.03;;;;;;;13.41;100.00;99133.31;5044898;28;20083;-87
2022/05/26 05:09:58;;;;;;;6.13;1.70;;;;;;;13.36;100.00;99133.13;5041642;28;20403;-87
2022/05/26 05:12:24;;;;;;;5.20;1.80;;;;;;;13.39;100.00;99138.00;5039532;28;20029;-86
2022/05/26 05:14:53;;;;;;;4.97;1.42;;;;;;;13.50;100.00;99137.34;5039230;28;20041;-87
2022/05/26 05:17:22;;;;;;;4.07;1.58;;;;;;;13.50;100.00;99150.53;5039682;28;20033;-86
2022/05/26 05:19:48;;;;;;;4.32;1.30;;;;;;;13.46;100.00;99154.59;5041189;28;20132;-88
2022/05/26 05:23:00;;;;;;;5.22;1.63;;;;;;;13.54;100.00;99175.44;5046974;28;20051;-88
2022/05/26 05:25:31;;;;;;;6.40;1.77;;;;;;;13.45;100.00;99155.63;4985256;28;20038;-88
2022/05/26 05:28:04;;;;;;;4.28;1.48;;;;;;;13.64;100.00;99148.63;4985146;28;20042;-89
2022/05/26 05:30:34;;;;;;;2.75;1.52;;;;;;;13.68;100.00;99147.19;5027618;28;20120;-89
2022/05/26 05:33:15;;;;;;;3.05;1.48;;;;;;;13.81;100.00;99138.38;5045668;28;20033;-87
2022/05/26 05:36:03;;;;;;;5.30;1.70;;;;;;;13.97;100.00;99147.59;5039930;28;20040;-89
2022/05/26 05:38:29;;;;;;;4.22;1.70;;;;;;;13.83;100.00;99152.16;5044323;28;20069;-89
2022/05/26 05:40:55;;;;;;;6.68;1.65;;;;;;;13.90;100.00;99164.50;5043170;28;20040;-90
2022/05/26 05:43:21;;;;;;;6.65;2.00;;;;;;;13.97;100.00;99157.38;5020276;28;20025;-90
2022/05/26 05:45:47;;;;;;;1.85;1.35;;;;;;;14.12;100.00;99154.41;5042569;28;20036;-90
2022/05/26 05:48:13;;;;;;;7.63;1.65;;;;;;;14.22;100.00;99146.00;5042195;28;20033;-90
2022/05/26 05:50:38;;;;;;;11.15;1.98;;;;;;;14.14;100.00;99141.81;5044073;28;20455;-88
2022/05/26 05:53:04;;;;;;;7.53;1.80;;;;;;;13.89;100.00;99157.63;5039217;28;20049;-90
2022/05/26 05:55:31;;;;;;;8.35;1.88;;;;;;;13.88;100.00;99145.44;5043933;28;20029;-88
2022/05/26 05:57:56;;;;;;;4.38;1.60;;;;;;;13.91;100.00;99148.47;5038458;28;20021;-91
2022/05/26 06:00:22;;;;;;;10.05;2.08;;;;;;;13.76;100.00;99163.78;5042934;28;20423;-86
2022/05/26 06:02:47;;;;;;;3.28;1.75;;;;;;;13.64;100.00;99153.09;5042519;28;20021;-90
2022/05/26 06:05:13;;;;;;;6.13;1.60;;;;;;;13.64;100.00;99158.38;5040927;28;20025;-91
2022/05/26 06:07:40;;;;;;;7.70;1.67;;;;;;;13.85;100.00;99159.84;5046152;28;20479;-89
2022/05/26 06:10:11;;;;;;;3.03;1.52;;;;;;;14.12;100.00;99167.59;5047333;28;20494;-89
2022/05/26 06:12:38;;;;;;;8.07;1.52;;;;;;;14.35;100.00;99166.22;5040542;28;20034;-91
2022/05/26 06:15:05;;;;;;;4.90;1.75;;;;;;;14.25;100.00;99174.63;5041643;28;20479;-89
2022/05/26 06:17:31;;;;;;;8.75;2.10;;;;;;;14.05;100.00;99170.28;5049414;28;20036;-90
2022/05/26 06:19:57;;;;;;;4.45;1.67;;;;;;;14.10;100.00;99154.63;5044664;28;20041;-90
2022/05/26 06:22:24;;;;;;;7.60;1.90;;;;;;;14.08;100.00;99177.00;5047358;28;20013;-91
2022/05/26 06:24:50;;;;;;;8.52;1.83;;;;;;;14.30;100.00;99166.06;5040714;28;20487;-89
2022/05/26 06:30:07;;;;;;;4.32;2.00;;;;;;;14.49;100.00;99177.47;5045850;28;20056;-89
2022/05/26 06:38:20;;;;;;;6.53;2.35;;;;;;;14.53;100.00;99178.63;5045202;28;20025;-88
2022/05/26 06:40:46;;;;;;;6.75;2.08;;;;;;;14.54;100.00;99188.19;5047097;28;20029;-87
2022/05/26 06:43:14;;;;;;;9.07;2.33;;;;;;;14.57;100.00;99175.34;5045685;28;20383;-89
2022/05/26 06:45:40;;;;;;;5.82;2.45;;;;;;;14.50;100.00;99173.78;5045465;28;20033;-89
2022/05/26 06:48:07;;;;;;;6.25;2.85;;;;;;;14.56;100.00;99175.59;5048647;28;20037;-89
2022/05/26 06:50:33;;;;;;;10.18;2.78;;;;;;;14.79;100.00;99169.69;5048245;28;20056;-88
2022/05/26 06:52:58;;;;;;;10.15;2.92;;;;;;;15.24;100.00;99171.25;5044942;28;20074;-87
2022/05/26 06:55:24;;;;;;;9.10;2.80;;;;;;;15.04;100.00;99178.59;5042444;28;20109;-87
2022/05/26 06:57:49;;;;;;;9.43;3.42;;;;;;;15.21;100.00;99162.94;5044533;28;20041;-88
2022/05/26 07:00:15;;;;;;;6.82;2.97;;;;;;;14.88;100.00;99169.41;5042550;28;20031;-90
2022/05/26 07:02:42;;;;;;;8.25;3.45;;;;;;;15.20;100.00;99162.13;5036562;28;20033;-89
2022/05/26 07:05:11;;;;;;;7.97;3.08;;;;;;;15.37;100.00;99172.91;5048612;28;20033;-90
2022/05/26 07:07:38;;;;;;;7.30;3.17;;;;;;;15.28;100.00;99172.41;5056458;28;20491;-90
2022/05/26 07:10:05;;;;;;;4.45;2.60;;;;;;;15.62;100.00;99174.63;5049607;28;20127;-83
2022/05/26 07:12:31;;;;;;;6.45;2.95;;;;;;;15.44;100.00;99177.31;5037676;28;20069;-84
2022/05/26 07:14:56;;;;;;;10.27;2.65;;;;;;;15.41;100.00;99181.22;5039531;28;20031;-83
2022/05/26 07:17:22;;;;;;;6.80;2.42;;;;;;;15.09;100.00;99176.09;5022585;28;20025;-88
2022/05/26 07:19:48;;;;;;;6.90;2.63;;;;;;;15.45;100.00;99184.22;5043981;28;20034;-90
2022/05/26 07:22:15;;;;;;;7.60;2.53;;;;;;;15.67;100.00;99187.19;5041847;28;20475;-88
2022/05/26 07:24:41;;;;;;;7.05;2.20;;;;;;;15.40;100.00;99188.31;5042935;28;20036;-89
2022/05/26 07:27:07;;;;;;;5.97;2.30;;;;;;;15.62;100.00;99187.06;5042765;28;20028;-89
2022/05/26 07:29:33;;;;;;;5.00;2.38;;;;;;;15.66;100.00;99180.28;5022950;28;20376;-90
2022/05/26 07:32:00;;;;;;;7.90;2.20;;;;;;;15.94;100.00;99182.34;5041443;28;20040;-89
2022/05/26 07:34:26;;;;;;;6.72;2.15;;;;;;;15.83;100.00;99170.69;5038779;28;20033;-89
2022/05/26 07:42:25;;;;;;;4.85;2.15;;;;;;;15.59;100.00;99174.28;5040930;28;20025;-89
2022/05/26 07:44:54;;;;;;;3.92;2.70;;;;;;;15.87;100.00;99167.56;5036562;28;20059;-89
2022/05/26 07:47:22;;;;;;;7.88;3.42;;;;;;;15.89;100.00;99169.00;5042232;28;20067;-89
2022/05/26 07:49:51;;;;;;;10.43;2.55;;;;;;;15.92;100.00;99173.03;5044688;28;20384;-89
2022/05/26 07:52:17;;;;;;;7.47;2.60;;;;;;;15.73;100.00;99170.44;5042510;28;20026;-88
2022/05/26 07:54:43;;;;;;;6.57;2.53;;;;;;;15.60;100.00;99178.53;5042000;28;20463;-89
2022/05/26 07:57:28;;;;;;;6.78;3.15;;;;;;;15.36;100.00;99178.44;5038186;28;20498;-90
2022/05/26 07:59:56;;;;;;;9.13;3.08;;;;;;;15.03;100.00;99177.78;5041857;28;20440;-90
2022/05/26 08:02:22;;;;;;;4.38;2.78;;;;;;;15.19;100.00;99184.31;5023196;28;20104;-90
2022/05/26 08:04:48;;;;;;;6.97;2.92;;;;;;;15.32;100.00;99179.88;5045233;28;20490;-88
2022/05/26 08:07:14;;;;;;;4.60;2.80;;;;;;;15.47;100.00;99182.16;5040570;28;20063;-88
2022/05/26 08:09:40;;;;;;;7.75;3.10;;;;;;;15.24;100.00;99183.66;5042103;28;20108;-89
2022/05/26 08:12:11;;;;;;;4.97;2.80;;;;;;;15.50;100.00;99173.78;5028703;28;20029;-90
2022/05/26 08:14:38;;;;;;;10.18;3.33;;;;;;;15.78;100.00;99175.03;5025405;28;20036;-89
2022/05/26 08:17:04;;;;;;;5.15;2.60;;;;;;;16.10;100.00;99175.59;5046030;28;20037;-88
2022/05/26 08:19:30;;;;;;;4.05;2.40;;;;;;;16.08;100.00;99177.66;5022688;28;20021;-88
2022/05/26 08:21:55;;;;;;;3.25;2.85;;;;;;;16.02;100.00;99178.56;5039146;28;20389;-90
2022/05/26 08:24:22;;;;;;;5.03;2.17;;;;;;;16.38;100.00;99174.16;5039804;28;20115;-89
2022/05/26 08:26:48;;;;;;;6.07;2.28;;;;;;;16.42;100.00;99172.66;5041231;28;20025;-90
2022/05/26 08:29:14;;;;;;;8.20;2.67;;;;;;;16.12;100.00;99165.59;5036361;28;20031;-90
2022/05/26 08:31:40;;;;;;;3.40;2.20;;;;;;;16.48;100.00;99170.09;5026328;28;20123;-87
2022/05/26 08:34:06;;;;;;;3.85;1.88;;;;;;;16.32;100.00;99175.06;5027024;28;20037;-89
2022/05/26 08:36:33;;;;;;;5.25;1.70;;;;;;;16.75;100.00;99174.97;5040856;28;20033;-89
2022/05/26 08:38:59;;;;;;;2.78;1.50;;;;;;;16.56;100.00;99167.13;5041692;28;20037;-89
2022/05/26 08:41:33;;;;;;;2.47;1.50;;;;;;;16.75;100.00;99161.72;5046382;28;20028;-89
2022/05/26 08:44:11;;;;;;;1.35;1.17;;;;;;;16.15;100.00;99168.84;5037724;28;20025;-89
2022/05/26 08:46:54;;;;;;;3.72;1.50;;;;;;;16.67;100.00;99144.31;5045790;28;20040;-89
2022/05/26 08:49:47;;;;;;;2.00;1.08;;;;;;;16.28;100.00;99152.72;5045927;28;20026;-88
2022/05/26 08:52:17;;;;;;;4.30;1.30;;;;;;;16.09;100.00;99157.31;5035448;28;20115;-89
2022/05/26 08:54:49;;;;;;;2.85;1.00;;;;;;;16.39;100.00;99151.91;5038985;28;20035;-90
2022/05/26 08:57:31;;;;;;;2.42;1.02;;;;;;;16.24;100.00;99156.84;5046686;28;20044;-89
2022/05/26 08:59:57;;;;;;;2.17;1.00;;;;;;;16.15;100.00;99158.25;5046407;28;20040;-90
2022/05/26 09:02:33;;;;;;;4.72;1.48;;;;;;;16.32;100.00;99166.31;5041826;28;20025;-87
2022/05/26 09:05:13;;;;;;;3.58;1.52;;;;;;;16.81;100.00;99163.41;5037711;28;20546;-91
2022/05/26 09:13:27;;;;;;;3.72;1.23;;;;;;;16.53;100.00;99175.53;5044985;28;20025;-91
2022/05/26 09:15:53;;;;;;;2.22;1.23;;;;;;;16.51;100.00;99175.75;5043568;28;20062;-91
2022/05/26 09:18:21;;;;;;;2.88;1.15;;;;;;;17.19;100.00;99171.91;5045980;28;20022;-90
2022/05/26 09:20:50;;;;;;;2.53;1.23;;;;;;;17.33;100.00;99175.91;5046070;28;20029;-90
2022/05/26 09:23:27;;;;;;;1.30;0.90;;;;;;;17.26;100.00;99170.72;5022683;28;20029;-91
2022/05/26 09:26:02;;;;;;;4.25;1.30;;;;;;;17.33;100.00;99175.91;5048674;28;20174;-90
2022/05/26 09:28:33;;;;;;;1.27;0.90;;;;;;;17.39;100.00;99177.63;5045709;28;20067;-90
2022/05/26 09:31:35;;;;;;;2.63;1.10;;;;;;;17.06;100.00;99170.31;5042209;28;20049;-88
2022/05/26 09:34:20;;;;;;;4.30;1.30;;;;;;;17.28;100.00;99162.53;5025840;28;20505;-88
2022/05/26 09:36:50;;;;;;;1.95;1.02;;;;;;;17.98;100.00;99167.78;5041628;28;20031;-89
2022/05/26 09:39:34;;;;;;;2.58;1.35;;;;;;;18.33;100.00;99156.13;5045727;28;20400;-88
2022/05/26 09:42:24;;;;;;;4.90;1.30;;;;;;;18.55;100.00;99164.16;5020769;28;20045;-90
2022/05/26 09:45:13;;;;;;;2.13;1.10;;;;;;;18.95;100.00;99177.44;5037965;28;20480;-89
2022/05/26 09:47:58;;;;;;;4.47;1.25;;;;;;;18.50;100.00;99182.69;5040499;28;20346;-90
2022/05/26 09:50:32;;;;;;;4.68;1.13;;;;;;;18.56;100.00;99186.22;5039739;28;20479;-89
2022/05/26 09:53:06;;;;;;;2.15;1.20;;;;;;;18.45;100.00;99152.56;5038188;28;20067;-89
2022/05/26 09:55:54;;;;;;;2.03;1.20;;;;;;;18.45;100.00;99173.84;5028630;28;20024;-90
2022/05/26 09:58:30;;;;;;;1.42;1.10;;;;;;;18.15;100.00;99175.78;5044276;28;20110;-89
2022/05/26 10:00:59;;;;;;;2.88;1.30;;;;;;;18.92;100.00;99178.75;5037909;28;20116;-89
2022/05/26 10:03:31;;;;;;;3.58;1.50;;;;;;;18.25;100.00;99169.81;5059820;28;20038;-89
2022/05/26 10:06:15;;;;;;;3.45;1.63;;;;;;;19.06;100.00;99162.44;5044309;28;20484;-89
2022/05/26 10:08:54;;;;;;;2.97;1.50;;;;;;;18.87;100.00;99154.75;5024956;28;20569;-89
2022/05/26 10:11:45;;;;;;;2.38;1.50;;;;;;;18.98;100.00;99150.38;5038242;28;20116;-90
2022/05/26 10:14:44;;;;;;;3.58;1.73;;;;;;;19.03;100.00;99154.97;5038824;28;20427;-89
2022/05/26 10:17:37;;;;;;;1.35;1.25;;;;;;;19.05;100.00;99144.88;5019362;28;20053;-89
2022/05/26 10:20:21;;;;;;;3.15;1.63;;;;;;;19.17;100.00;99142.09;5038394;28;20029;-90
2022/05/26 10:23:03;;;;;;;4.25;1.52;;;;;;;19.33;100.00;99141.19;5045822;28;20120;-89
2022/05/26 10:25:35;;;;;;;4.53;1.63;;;;;;;19.83;100.00;99141.16;5042194;28;20030;-88
2022/05/26 10:28:45;;;;;;;1.52;1.25;;;;;;;20.02;100.00;99130.16;5034716;28;20040;-87
2022/05/26 10:31:35;;;;;;;4.20;2.10;;;;;;;20.32;100.00;99142.88;5037578;28;20036;-88
2022/05/26 10:34:38;;;;;;;3.70;1.70;;;;;;;19.67;100.00;99137.56;5036602;28;20049;-87
2022/05/26 10:37:04;;;;;;;3.10;1.48;;;;;;;19.39;100.00;99139.41;5039861;28;20026;-86
2022/05/26 10:40:07;;;;;;;2.35;1.50;;;;;;;19.55;100.00;99138.50;5038645;28;20032;-91
2022/05/26 10:42:41;;;;;;;1.48;1.30;;;;;;;19.96;100.00;99140.78;5036364;28;20502;-87
2022/05/26 10:45:14;;;;;;;1.98;1.40;;;;;;;18.69;100.00;99145.19;5040598;28;20040;-88
2022/05/26 10:48:07;;;;;;;1.80;1.20;;;;;;;18.80;100.00;99144.31;5038742;28;20032;-89
2022/05/26 10:50:42;;;;;;;5.32;2.00;;;;;;;18.98;100.00;99145.06;4994996;28;20044;-88
2022/05/26 10:53:23;;;;;;;2.50;1.50;;;;;;;19.10;100.00;99147.63;5039273;28;20414;-86
2022/05/26 10:56:09;;;;;;;2.58;1.40;;;;;;;19.31;100.00;99137.19;5043870;28;20037;-89
2022/05/26 10:58:46;;;;;;;4.35;1.40;;;;;;;18.87;100.00;99153.94;5038673;28;20380;-88
2022/05/26 11:01:28;;;;;;;3.58;2.15;;;;;;;19.00;100.00;99150.13;5036588;28;20107;-88
2022/05/26 11:04:02;;;;;;;5.13;1.95;;;;;;;18.28;100.00;99158.72;5035522;28;20025;-86
2022/05/26 11:06:32;;;;;;;4.55;1.70;;;;;;;18.45;100.00;99153.38;5039743;28;20025;-87
2022/05/26 11:09:30;;;;;;;3.40;1.58;;;;;;;18.72;100.00;99159.88;5019960;28;20432;-87
2022/05/26 11:12:04;;;;;;;7.85;2.13;;;;;;;19.16;100.00;99145.78;5047464;28;20501;-86
2022/05/26 11:17:44;;;;;;;4.90;2.22;;;;;;;18.90;100.00;99158.75;5036319;28;20045;-88
2022/05/26 11:20:27;;;;;;;3.97;2.05;;;;;;;18.88;100.00;99156.38;5040219;28;20022;-88
2022/05/26 11:22:57;;;;;;;6.00;2.20;;;;;;;19.04;100.00;99144.09;5021541;28;20037;-87
2022/05/26 11:25:32;;;;;;;3.78;2.08;;;;;;;20.01;100.00;99144.53;5041676;28;20116;-88
2022/05/26 11:28:09;;;;;;;7.43;2.60;;;;;;;19.71;100.00;99146.66;5040401;28;20035;-88
2022/05/26 11:36:44;;;;;;;5.82;2.40;;;;;;;20.42;100.00;99128.81;5041212;28;20037;-89
2022/05/26 11:39:19;;;;;;;6.13;2.25;;;;;;;21.13;100.00;99124.09;5041032;28;20039;-92
2022/05/26 11:41:56;;;;;;;4.25;2.30;;;;;;;20.89;100.00;99129.06;5044984;28;20029;-89
2022/05/26 11:44:34;;;;;;;6.97;2.20;;;;;;;20.11;100.00;99152.59;5037319;28;20034;-89
2022/05/26 11:47:27;;;;;;;3.78;2.45;;;;;;;19.84;100.00;99132.09;5038344;28;20029;-89
2022/05/26 11:49:53;;;;;;;7.68;2.70;;;;;;;20.03;100.00;99140.53;5049331;28;20060;-89
2022/05/26 11:52:43;;;;;;;6.18;2.38;;;;;;;20.68;100.00;99132.44;5022337;28;20033;-90
2022/05/26 11:55:45;;;;;;;10.55;2.90;;;;;;;20.55;100.00;99131.03;5030358;28;20040;-89
2022/05/26 11:58:35;;;;;;;8.32;2.67;;;;;;;20.19;100.00;99130.00;5043964;28;20021;-91
2022/05/26 12:01:32;;;;;;;6.78;2.67;;;;;;;20.09;100.00;99136.88;5024714;28;20120;-88
2022/05/26 12:04:00;;;;;;;10.32;2.55;;;;;;;19.82;100.00;99136.88;5032210;28;20383;-89
2022/05/26 12:06:37;;;;;;;6.30;2.13;;;;;;;20.01;100.00;99149.84;5048780;28;20033;-88
2022/05/26 12:09:08;;;;;;;6.38;2.35;;;;;;;19.61;100.00;99150.03;5036667;28;20036;-87
2022/05/26 12:11:59;;;;;;;7.82;2.40;;;;;;;19.54;100.00;99154.72;5043804;28;20030;-89
2022/05/26 12:14:33;;;;;;;6.38;2.50;;;;;;;18.84;100.00;99149.91;5047649;28;20080;-87
2022/05/26 12:17:36;;;;;;;5.85;1.83;;;;;;;19.36;100.00;99150.56;5051884;28;20036;-89
2022/05/26 12:20:10;;;;;;;6.78;2.72;;;;;;;19.41;100.00;99154.09;5042417;28;20057;-87
2022/05/26 12:22:41;;;;;;;4.15;2.30;;;;;;;19.26;100.00;99152.06;5034215;28;20032;-89
2022/05/26 12:25:22;;;;;;;6.60;2.95;;;;;;;19.74;100.00;99153.31;5048724;28;20028;-88
2022/05/26 12:27:48;;;;;;;6.05;2.20;;;;;;;19.83;100.00;99147.28;5049762;28;20042;-88